sensor_id;sensor_type;location;lat;lon;timestamp;temperature;humidity
75719;DHT22;64340;48.534;-3.036;2023-03-01T00:02:04;14.00;54.00
75719;DHT22;64340;48.534;-3.036;2023-03-01T00:04:30;14.00;54.10
75719;DHT22;64340;48.534;-3.036;2023-03-01T00:06:57;14.00;54.20
75719;DHT22;64340;48.534;-3.036;2023-03-01T00:09:22;14.00;54.20
75719;DHT22;64340;48.534;-3.036;2023-03-01T00:11:48;14.00;54.20
75719;DHT22;64340;48.534;-3.036;2023-03-01T00:14:14;13.90;54.00
75719;DHT22;64340;48.534;-3.036;2023-03-01T00:16:43;13.90;54.20
75719;DHT22;64340;48.534;-3.036;2023-03-01T00:19:12;13.90;54.20
75719;DHT22;64340;48.534;-3.036;2023-03-01T00:21:38;13.90;54.20
75719;DHT22;64340;48.534;-3.036;2023-03-01T00:24:04;13.90;54.10
75719;DHT22;64340;48.534;-3.036;2023-03-01T00:26:30;13.90;54.00
75719;DHT22;64340;48.534;-3.036;2023-03-01T00:28:57;13.80;54.10
75719;DHT22;64340;48.534;-3.036;2023-03-01T00:31:26;13.80;54.00
75719;DHT22;64340;48.534;-3.036;2023-03-01T00:33:54;13.70;53.70
75719;DHT22;64340;48.534;-3.036;2023-03-01T00:36:27;13.70;53.70
75719;DHT22;64340;48.534;-3.036;2023-03-01T00:38:54;13.70;53.90
75719;DHT22;64340;48.534;-3.036;2023-03-01T00:41:21;13.70;53.80
75719;DHT22;64340;48.534;-3.036;2023-03-01T00:43:52;13.60;53.90
75719;DHT22;64340;48.534;-3.036;2023-03-01T00:46:21;13.60;53.80
75719;DHT22;64340;48.534;-3.036;2023-03-01T00:48:47;13.60;53.70
75719;DHT22;64340;48.534;-3.036;2023-03-01T00:51:19;13.50;53.80
75719;DHT22;64340;48.534;-3.036;2023-03-01T00:53:45;13.50;53.70
75719;DHT22;64340;48.534;-3.036;2023-03-01T00:56:13;13.50;53.80
75719;DHT22;64340;48.534;-3.036;2023-03-01T00:58:39;13.50;53.50
75719;DHT22;64340;48.534;-3.036;2023-03-01T01:01:15;13.50;53.50
75719;DHT22;64340;48.534;-3.036;2023-03-01T01:06:23;13.50;53.50
75719;DHT22;64340;48.534;-3.036;2023-03-01T01:08:49;13.40;53.40
75719;DHT22;64340;48.534;-3.036;2023-03-01T01:11:16;13.40;53.60
75719;DHT22;64340;48.534;-3.036;2023-03-01T01:13:44;13.30;53.70
75719;DHT22;64340;48.534;-3.036;2023-03-01T01:16:10;13.30;53.80
75719;DHT22;64340;48.534;-3.036;2023-03-01T01:18:36;13.30;53.70
75719;DHT22;64340;48.534;-3.036;2023-03-01T01:21:11;13.30;53.00
75719;DHT22;64340;48.534;-3.036;2023-03-01T01:23:37;13.30;53.00
75719;DHT22;64340;48.534;-3.036;2023-03-01T01:26:08;13.30;52.90
75719;DHT22;64340;48.534;-3.036;2023-03-01T01:28:35;13.30;52.50
75719;DHT22;64340;48.534;-3.036;2023-03-01T01:31:00;13.30;52.60
75719;DHT22;64340;48.534;-3.036;2023-03-01T01:33:27;13.30;52.90
75719;DHT22;64340;48.534;-3.036;2023-03-01T01:35:53;13.20;52.60
75719;DHT22;64340;48.534;-3.036;2023-03-01T01:38:19;13.20;52.70
75719;DHT22;64340;48.534;-3.036;2023-03-01T01:40:45;13.10;52.60
75719;DHT22;64340;48.534;-3.036;2023-03-01T01:43:35;13.10;52.50
75719;DHT22;64340;48.534;-3.036;2023-03-01T01:46:04;13.10;52.60
75719;DHT22;64340;48.534;-3.036;2023-03-01T01:48:57;13.10;52.70
75719;DHT22;64340;48.534;-3.036;2023-03-01T01:51:28;13.10;52.60
75719;DHT22;64340;48.534;-3.036;2023-03-01T01:54:07;13.10;53.10
75719;DHT22;64340;48.534;-3.036;2023-03-01T01:56:36;13.10;52.80
75719;DHT22;64340;48.534;-3.036;2023-03-01T01:59:02;13.00;53.00
75719;DHT22;64340;48.534;-3.036;2023-03-01T02:01:28;13.00;52.50
75719;DHT22;64340;48.534;-3.036;2023-03-01T02:03:53;13.00;52.30
75719;DHT22;64340;48.534;-3.036;2023-03-01T02:06:31;13.00;52.40
75719;DHT22;64340;48.534;-3.036;2023-03-01T02:09:02;13.00;52.30
75719;DHT22;64340;48.534;-3.036;2023-03-01T02:11:31;13.00;52.20
75719;DHT22;64340;48.534;-3.036;2023-03-01T02:13:58;13.00;52.20
75719;DHT22;64340;48.534;-3.036;2023-03-01T02:16:25;12.90;52.30
75719;DHT22;64340;48.534;-3.036;2023-03-01T02:18:52;12.90;52.30
75719;DHT22;64340;48.534;-3.036;2023-03-01T02:23:44;12.90;52.20
75719;DHT22;64340;48.534;-3.036;2023-03-01T02:29:04;12.80;52.40
75719;DHT22;64340;48.534;-3.036;2023-03-01T02:31:31;12.80;52.30
75719;DHT22;64340;48.534;-3.036;2023-03-01T02:34:18;12.80;52.20
75719;DHT22;64340;48.534;-3.036;2023-03-01T02:36:48;12.80;52.20
75719;DHT22;64340;48.534;-3.036;2023-03-01T02:39:14;12.80;52.20
75719;DHT22;64340;48.534;-3.036;2023-03-01T02:41:48;12.80;52.30
75719;DHT22;64340;48.534;-3.036;2023-03-01T02:44:15;12.70;52.00
75719;DHT22;64340;48.534;-3.036;2023-03-01T02:46:50;12.70;52.30
75719;DHT22;64340;48.534;-3.036;2023-03-01T02:49:24;12.70;52.50
75719;DHT22;64340;48.534;-3.036;2023-03-01T02:54:46;12.70;52.30
75719;DHT22;64340;48.534;-3.036;2023-03-01T02:57:13;12.70;52.20
75719;DHT22;64340;48.534;-3.036;2023-03-01T02:59:40;12.70;52.20
75719;DHT22;64340;48.534;-3.036;2023-03-01T03:02:19;12.70;52.10
75719;DHT22;64340;48.534;-3.036;2023-03-01T03:04:46;12.60;52.20
75719;DHT22;64340;48.534;-3.036;2023-03-01T03:07:12;12.60;52.20
75719;DHT22;64340;48.534;-3.036;2023-03-01T03:09:38;12.60;52.20
75719;DHT22;64340;48.534;-3.036;2023-03-01T03:12:04;12.60;52.20
75719;DHT22;64340;48.534;-3.036;2023-03-01T03:14:30;12.50;52.10
75719;DHT22;64340;48.534;-3.036;2023-03-01T03:17:00;12.50;52.10
75719;DHT22;64340;48.534;-3.036;2023-03-01T03:19:26;12.50;52.00
75719;DHT22;64340;48.534;-3.036;2023-03-01T03:21:51;12.50;52.10
75719;DHT22;64340;48.534;-3.036;2023-03-01T03:24:17;12.50;52.00
75719;DHT22;64340;48.534;-3.036;2023-03-01T03:26:43;12.50;52.00
75719;DHT22;64340;48.534;-3.036;2023-03-01T03:29:09;12.50;52.10
75719;DHT22;64340;48.534;-3.036;2023-03-01T03:31:35;12.50;51.90
75719;DHT22;64340;48.534;-3.036;2023-03-01T03:34:01;12.50;52.00
75719;DHT22;64340;48.534;-3.036;2023-03-01T03:36:26;12.50;52.00
75719;DHT22;64340;48.534;-3.036;2023-03-01T03:38:52;12.50;51.90
75719;DHT22;64340;48.534;-3.036;2023-03-01T03:41:18;12.50;51.90
75719;DHT22;64340;48.534;-3.036;2023-03-01T03:43:44;12.50;51.90
75719;DHT22;64340;48.534;-3.036;2023-03-01T03:46:11;12.40;51.90
75719;DHT22;64340;48.534;-3.036;2023-03-01T03:48:39;12.40;51.80
75719;DHT22;64340;48.534;-3.036;2023-03-01T03:51:06;12.40;51.90
75719;DHT22;64340;48.534;-3.036;2023-03-01T03:53:32;12.30;51.90
75719;DHT22;64340;48.534;-3.036;2023-03-01T03:55:58;12.30;51.90
75719;DHT22;64340;48.534;-3.036;2023-03-01T03:58:25;12.30;51.90
75719;DHT22;64340;48.534;-3.036;2023-03-01T04:00:56;12.30;51.90
75719;DHT22;64340;48.534;-3.036;2023-03-01T04:03:23;12.30;51.90
75719;DHT22;64340;48.534;-3.036;2023-03-01T04:05:50;12.20;51.90
75719;DHT22;64340;48.534;-3.036;2023-03-01T04:08:19;12.20;52.00
75719;DHT22;64340;48.534;-3.036;2023-03-01T04:10:49;12.20;52.20
75719;DHT22;64340;48.534;-3.036;2023-03-01T04:13:18;12.20;52.10
75719;DHT22;64340;48.534;-3.036;2023-03-01T04:15:46;12.20;51.90
75719;DHT22;64340;48.534;-3.036;2023-03-01T04:18:14;12.20;51.90
75719;DHT22;64340;48.534;-3.036;2023-03-01T04:20:42;12.20;51.90
75719;DHT22;64340;48.534;-3.036;2023-03-01T04:23:13;12.20;52.10
75719;DHT22;64340;48.534;-3.036;2023-03-01T04:25:57;12.10;52.00
75719;DHT22;64340;48.534;-3.036;2023-03-01T04:30:51;12.10;52.10
75719;DHT22;64340;48.534;-3.036;2023-03-01T04:33:17;12.10;52.00
75719;DHT22;64340;48.534;-3.036;2023-03-01T04:35:43;12.10;52.00
75719;DHT22;64340;48.534;-3.036;2023-03-01T04:38:09;12.10;52.10
75719;DHT22;64340;48.534;-3.036;2023-03-01T04:40:35;12.10;52.10
75719;DHT22;64340;48.534;-3.036;2023-03-01T04:43:01;12.00;52.10
75719;DHT22;64340;48.534;-3.036;2023-03-01T04:45:27;12.00;52.00
75719;DHT22;64340;48.534;-3.036;2023-03-01T04:47:53;12.00;52.00
75719;DHT22;64340;48.534;-3.036;2023-03-01T04:50:20;12.00;52.00
75719;DHT22;64340;48.534;-3.036;2023-03-01T04:52:47;12.00;52.20
75719;DHT22;64340;48.534;-3.036;2023-03-01T04:55:13;12.00;52.10
75719;DHT22;64340;48.534;-3.036;2023-03-01T04:57:39;12.00;52.30
75719;DHT22;64340;48.534;-3.036;2023-03-01T05:00:07;11.90;52.40
75719;DHT22;64340;48.534;-3.036;2023-03-01T05:02:54;11.90;52.30
75719;DHT22;64340;48.534;-3.036;2023-03-01T05:05:25;11.90;52.10
75719;DHT22;64340;48.534;-3.036;2023-03-01T05:07:55;11.90;52.30
75719;DHT22;64340;48.534;-3.036;2023-03-01T05:10:22;11.90;52.40
75719;DHT22;64340;48.534;-3.036;2023-03-01T05:12:49;11.90;52.20
75719;DHT22;64340;48.534;-3.036;2023-03-01T05:15:15;11.90;52.30
75719;DHT22;64340;48.534;-3.036;2023-03-01T05:17:40;11.90;52.50
75719;DHT22;64340;48.534;-3.036;2023-03-01T05:20:06;11.90;52.40
75719;DHT22;64340;48.534;-3.036;2023-03-01T05:22:34;11.80;52.50
75719;DHT22;64340;48.534;-3.036;2023-03-01T05:25:01;11.80;52.50
75719;DHT22;64340;48.534;-3.036;2023-03-01T05:27:26;11.70;52.50
75719;DHT22;64340;48.534;-3.036;2023-03-01T05:29:52;11.70;52.60
75719;DHT22;64340;48.534;-3.036;2023-03-01T05:32:18;11.80;52.20
75719;DHT22;64340;48.534;-3.036;2023-03-01T05:34:44;11.90;52.10
75719;DHT22;64340;48.534;-3.036;2023-03-01T05:37:12;11.90;52.40
75719;DHT22;64340;48.534;-3.036;2023-03-01T05:39:39;11.90;52.80
75719;DHT22;64340;48.534;-3.036;2023-03-01T05:42:10;11.90;52.40
75719;DHT22;64340;48.534;-3.036;2023-03-01T05:44:36;11.90;52.40
75719;DHT22;64340;48.534;-3.036;2023-03-01T05:47:02;11.90;52.50
75719;DHT22;64340;48.534;-3.036;2023-03-01T05:49:27;11.90;52.90
75719;DHT22;64340;48.534;-3.036;2023-03-01T05:51:53;11.90;53.00
75719;DHT22;64340;48.534;-3.036;2023-03-01T05:54:21;11.90;53.20
75719;DHT22;64340;48.534;-3.036;2023-03-01T05:56:47;11.80;53.00
75719;DHT22;64340;48.534;-3.036;2023-03-01T05:59:13;11.90;53.20
75719;DHT22;64340;48.534;-3.036;2023-03-01T06:01:40;11.90;53.50
75719;DHT22;64340;48.534;-3.036;2023-03-01T06:04:06;11.90;54.00
75719;DHT22;64340;48.534;-3.036;2023-03-01T06:06:36;11.90;53.30
75719;DHT22;64340;48.534;-3.036;2023-03-01T06:09:03;11.70;53.40
75719;DHT22;64340;48.534;-3.036;2023-03-01T06:11:29;11.70;53.50
75719;DHT22;64340;48.534;-3.036;2023-03-01T06:13:55;11.70;53.70
75719;DHT22;64340;48.534;-3.036;2023-03-01T06:16:21;11.70;53.70
75719;DHT22;64340;48.534;-3.036;2023-03-01T06:18:47;11.80;53.40
75719;DHT22;64340;48.534;-3.036;2023-03-01T06:21:12;11.80;54.20
75719;DHT22;64340;48.534;-3.036;2023-03-01T06:23:39;11.80;53.20
75719;DHT22;64340;48.534;-3.036;2023-03-01T06:26:08;11.80;52.80
75719;DHT22;64340;48.534;-3.036;2023-03-01T06:28:36;11.80;53.30
75719;DHT22;64340;48.534;-3.036;2023-03-01T06:31:02;11.80;53.50
75719;DHT22;64340;48.534;-3.036;2023-03-01T06:33:28;11.80;53.90
75719;DHT22;64340;48.534;-3.036;2023-03-01T06:35:55;11.80;55.30
75719;DHT22;64340;48.534;-3.036;2023-03-01T06:38:23;11.80;55.70
75719;DHT22;64340;48.534;-3.036;2023-03-01T06:40:53;11.80;56.00
75719;DHT22;64340;48.534;-3.036;2023-03-01T06:43:20;11.80;54.30
75719;DHT22;64340;48.534;-3.036;2023-03-01T06:45:46;11.90;55.40
75719;DHT22;64340;48.534;-3.036;2023-03-01T06:48:12;11.90;55.50
75719;DHT22;64340;48.534;-3.036;2023-03-01T06:50:38;11.80;56.50
75719;DHT22;64340;48.534;-3.036;2023-03-01T06:53:03;11.70;56.80
75719;DHT22;64340;48.534;-3.036;2023-03-01T06:55:30;11.70;56.40
75719;DHT22;64340;48.534;-3.036;2023-03-01T06:57:57;11.70;57.60
75719;DHT22;64340;48.534;-3.036;2023-03-01T07:00:24;11.70;57.70
75719;DHT22;64340;48.534;-3.036;2023-03-01T07:02:50;11.70;57.40
75719;DHT22;64340;48.534;-3.036;2023-03-01T07:05:17;11.70;57.00
75719;DHT22;64340;48.534;-3.036;2023-03-01T07:07:42;11.70;57.20
75719;DHT22;64340;48.534;-3.036;2023-03-01T07:10:09;11.70;56.70
75719;DHT22;64340;48.534;-3.036;2023-03-01T07:12:35;11.70;57.50
75719;DHT22;64340;48.534;-3.036;2023-03-01T07:15:01;11.70;56.40
75719;DHT22;64340;48.534;-3.036;2023-03-01T07:17:27;11.70;56.40
75719;DHT22;64340;48.534;-3.036;2023-03-01T07:19:53;11.70;56.60
75719;DHT22;64340;48.534;-3.036;2023-03-01T07:22:19;11.60;56.90
75719;DHT22;64340;48.534;-3.036;2023-03-01T07:24:45;11.70;57.00
75719;DHT22;64340;48.534;-3.036;2023-03-01T07:27:11;11.60;56.50
75719;DHT22;64340;48.534;-3.036;2023-03-01T07:29:36;11.60;56.20
75719;DHT22;64340;48.534;-3.036;2023-03-01T07:32:03;11.60;56.10
75719;DHT22;64340;48.534;-3.036;2023-03-01T07:34:29;11.50;56.20
75719;DHT22;64340;48.534;-3.036;2023-03-01T07:36:55;11.50;56.00
75719;DHT22;64340;48.534;-3.036;2023-03-01T07:39:21;11.60;55.80
75719;DHT22;64340;48.534;-3.036;2023-03-01T07:41:49;11.60;55.60
75719;DHT22;64340;48.534;-3.036;2023-03-01T07:44:14;11.60;55.70
75719;DHT22;64340;48.534;-3.036;2023-03-01T07:46:42;11.50;55.60
75719;DHT22;64340;48.534;-3.036;2023-03-01T07:49:07;11.60;55.70
75719;DHT22;64340;48.534;-3.036;2023-03-01T07:51:33;11.50;55.60
75719;DHT22;64340;48.534;-3.036;2023-03-01T07:53:59;11.50;55.50
75719;DHT22;64340;48.534;-3.036;2023-03-01T07:56:25;11.60;55.50
75719;DHT22;64340;48.534;-3.036;2023-03-01T07:58:51;11.60;55.40
75719;DHT22;64340;48.534;-3.036;2023-03-01T08:01:19;11.50;55.30
75719;DHT22;64340;48.534;-3.036;2023-03-01T08:03:45;11.60;55.20
75719;DHT22;64340;48.534;-3.036;2023-03-01T08:06:13;11.60;55.40
75719;DHT22;64340;48.534;-3.036;2023-03-01T08:08:39;11.60;54.70
75719;DHT22;64340;48.534;-3.036;2023-03-01T08:11:07;11.60;54.70
75719;DHT22;64340;48.534;-3.036;2023-03-01T08:13:33;11.70;54.70
75719;DHT22;64340;48.534;-3.036;2023-03-01T08:16:07;11.70;54.80
75719;DHT22;64340;48.534;-3.036;2023-03-01T08:18:33;11.70;54.70
75719;DHT22;64340;48.534;-3.036;2023-03-01T08:21:16;11.70;54.40
75719;DHT22;64340;48.534;-3.036;2023-03-01T08:23:42;11.70;54.40
75719;DHT22;64340;48.534;-3.036;2023-03-01T08:26:11;11.70;54.50
75719;DHT22;64340;48.534;-3.036;2023-03-01T08:28:38;11.70;54.50
75719;DHT22;64340;48.534;-3.036;2023-03-01T08:31:56;11.70;54.60
75719;DHT22;64340;48.534;-3.036;2023-03-01T08:34:04;11.70;54.50
75719;DHT22;64340;48.534;-3.036;2023-03-01T08:36:36;11.70;54.60
75719;DHT22;64340;48.534;-3.036;2023-03-01T08:39:03;11.70;54.50
75719;DHT22;64340;48.534;-3.036;2023-03-01T08:41:29;11.70;54.60
75719;DHT22;64340;48.534;-3.036;2023-03-01T08:43:55;11.70;54.50
75719;DHT22;64340;48.534;-3.036;2023-03-01T08:46:32;11.70;54.60
75719;DHT22;64340;48.534;-3.036;2023-03-01T08:48:58;11.60;54.40
75719;DHT22;64340;48.534;-3.036;2023-03-01T08:51:24;11.70;54.40
75719;DHT22;64340;48.534;-3.036;2023-03-01T08:53:50;11.70;54.40
75719;DHT22;64340;48.534;-3.036;2023-03-01T08:56:17;11.70;54.40
75719;DHT22;64340;48.534;-3.036;2023-03-01T08:58:48;11.70;54.30
75719;DHT22;64340;48.534;-3.036;2023-03-01T09:01:18;11.70;54.30
75719;DHT22;64340;48.534;-3.036;2023-03-01T09:03:45;11.70;54.20
75719;DHT22;64340;48.534;-3.036;2023-03-01T09:06:11;11.70;54.30
75719;DHT22;64340;48.534;-3.036;2023-03-01T09:08:42;11.70;54.30
75719;DHT22;64340;48.534;-3.036;2023-03-01T09:11:12;11.70;54.20
75719;DHT22;64340;48.534;-3.036;2023-03-01T09:13:38;11.70;54.30
75719;DHT22;64340;48.534;-3.036;2023-03-01T09:16:06;11.70;54.20
75719;DHT22;64340;48.534;-3.036;2023-03-01T09:18:32;11.70;54.20
75719;DHT22;64340;48.534;-3.036;2023-03-01T09:21:17;11.70;54.20
75719;DHT22;64340;48.534;-3.036;2023-03-01T09:23:45;11.70;54.10
75719;DHT22;64340;48.534;-3.036;2023-03-01T09:26:14;11.70;54.10
75719;DHT22;64340;48.534;-3.036;2023-03-01T09:28:42;11.70;54.20
75719;DHT22;64340;48.534;-3.036;2023-03-01T09:31:08;11.70;54.20
75719;DHT22;64340;48.534;-3.036;2023-03-01T09:33:34;11.70;54.20
75719;DHT22;64340;48.534;-3.036;2023-03-01T09:36:05;11.70;54.00
75719;DHT22;64340;48.534;-3.036;2023-03-01T09:38:31;11.70;54.00
75719;DHT22;64340;48.534;-3.036;2023-03-01T09:40:57;11.70;53.90
75719;DHT22;64340;48.534;-3.036;2023-03-01T09:46:10;11.70;54.00
75719;DHT22;64340;48.534;-3.036;2023-03-01T09:49:04;11.70;54.00
75719;DHT22;64340;48.534;-3.036;2023-03-01T09:51:34;11.70;53.90
75719;DHT22;64340;48.534;-3.036;2023-03-01T09:54:04;11.70;53.90
75719;DHT22;64340;48.534;-3.036;2023-03-01T09:56:40;11.70;53.90
75719;DHT22;64340;48.534;-3.036;2023-03-01T10:04:51;11.80;53.80
75719;DHT22;64340;48.534;-3.036;2023-03-01T10:07:23;11.80;53.70
75719;DHT22;64340;48.534;-3.036;2023-03-01T10:09:52;11.80;53.80
75719;DHT22;64340;48.534;-3.036;2023-03-01T10:12:25;11.80;53.50
75719;DHT22;64340;48.534;-3.036;2023-03-01T10:17:33;11.80;53.50
75719;DHT22;64340;48.534;-3.036;2023-03-01T10:22:42;11.90;53.90
75719;DHT22;64340;48.534;-3.036;2023-03-01T10:25:14;11.90;54.00
75719;DHT22;64340;48.534;-3.036;2023-03-01T10:27:53;11.90;53.90
75719;DHT22;64340;48.534;-3.036;2023-03-01T10:30:33;11.90;53.90
75719;DHT22;64340;48.534;-3.036;2023-03-01T10:33:00;11.80;53.90
75719;DHT22;64340;48.534;-3.036;2023-03-01T10:35:31;11.80;53.90
75719;DHT22;64340;48.534;-3.036;2023-03-01T10:38:07;11.80;53.90
75719;DHT22;64340;48.534;-3.036;2023-03-01T10:40:34;11.80;54.00
75719;DHT22;64340;48.534;-3.036;2023-03-01T10:43:03;11.90;54.00
75719;DHT22;64340;48.534;-3.036;2023-03-01T10:45:31;11.90;54.00
75719;DHT22;64340;48.534;-3.036;2023-03-01T10:48:17;11.90;54.00
75719;DHT22;64340;48.534;-3.036;2023-03-01T10:50:49;11.90;53.90
75719;DHT22;64340;48.534;-3.036;2023-03-01T10:53:24;11.90;53.90
75719;DHT22;64340;48.534;-3.036;2023-03-01T10:56:03;11.90;53.80
75719;DHT22;64340;48.534;-3.036;2023-03-01T10:58:30;11.90;53.70
75719;DHT22;64340;48.534;-3.036;2023-03-01T11:01:00;11.90;53.70
75719;DHT22;64340;48.534;-3.036;2023-03-01T11:03:37;11.90;53.70
75719;DHT22;64340;48.534;-3.036;2023-03-01T11:08:46;11.90;53.80
75719;DHT22;64340;48.534;-3.036;2023-03-01T11:14:21;11.90;53.70
75719;DHT22;64340;48.534;-3.036;2023-03-01T11:16:58;11.90;53.90
75719;DHT22;64340;48.534;-3.036;2023-03-01T11:19:24;11.90;53.90
75719;DHT22;64340;48.534;-3.036;2023-03-01T11:22:12;11.90;53.90
75719;DHT22;64340;48.534;-3.036;2023-03-01T11:24:47;11.90;53.70
75719;DHT22;64340;48.534;-3.036;2023-03-01T11:27:33;11.90;53.70
75719;DHT22;64340;48.534;-3.036;2023-03-01T11:30:00;11.90;53.70
75719;DHT22;64340;48.534;-3.036;2023-03-01T11:32:50;11.90;53.70
75719;DHT22;64340;48.534;-3.036;2023-03-01T11:35:26;11.90;53.70
75719;DHT22;64340;48.534;-3.036;2023-03-01T11:38:40;11.90;53.60
75719;DHT22;64340;48.534;-3.036;2023-03-01T11:40:48;11.90;53.70
75719;DHT22;64340;48.534;-3.036;2023-03-01T12:00:19;11.90;53.60
75719;DHT22;64340;48.534;-3.036;2023-03-01T12:06:06;11.90;53.30
75719;DHT22;64340;48.534;-3.036;2023-03-01T12:08:47;11.90;53.40
75719;DHT22;64340;48.534;-3.036;2023-03-01T12:37:19;11.90;53.70
75719;DHT22;64340;48.534;-3.036;2023-03-01T12:45:42;12.00;53.70
75719;DHT22;64340;48.534;-3.036;2023-03-01T12:51:24;11.90;53.70
75719;DHT22;64340;48.534;-3.036;2023-03-01T12:53:53;11.90;53.70
75719;DHT22;64340;48.534;-3.036;2023-03-01T12:56:27;11.90;53.80
75719;DHT22;64340;48.534;-3.036;2023-03-01T15:46:52;12.90;55.00
75719;DHT22;64340;48.534;-3.036;2023-03-01T15:51:58;13.20;54.90
75719;DHT22;64340;48.534;-3.036;2023-03-01T15:54:25;13.20;54.80
75719;DHT22;64340;48.534;-3.036;2023-03-01T15:56:52;13.30;54.80
75719;DHT22;64340;48.534;-3.036;2023-03-01T15:59:18;13.30;54.90
75719;DHT22;64340;48.534;-3.036;2023-03-01T16:01:45;13.30;54.70
75719;DHT22;64340;48.534;-3.036;2023-03-01T16:04:16;13.30;54.70
75719;DHT22;64340;48.534;-3.036;2023-03-01T16:06:53;13.30;54.70
75719;DHT22;64340;48.534;-3.036;2023-03-01T16:09:25;13.30;54.60
75719;DHT22;64340;48.534;-3.036;2023-03-01T16:11:52;13.30;54.50
75719;DHT22;64340;48.534;-3.036;2023-03-01T16:14:18;13.30;54.60
75719;DHT22;64340;48.534;-3.036;2023-03-01T16:16:45;13.40;54.70
75719;DHT22;64340;48.534;-3.036;2023-03-01T16:19:11;13.40;54.80
75719;DHT22;64340;48.534;-3.036;2023-03-01T16:21:38;13.40;54.60
75719;DHT22;64340;48.534;-3.036;2023-03-01T16:24:04;13.50;54.60
75719;DHT22;64340;48.534;-3.036;2023-03-01T16:26:30;13.50;54.70
75719;DHT22;64340;48.534;-3.036;2023-03-01T16:28:56;13.50;54.70
75719;DHT22;64340;48.534;-3.036;2023-03-01T16:31:25;13.60;54.70
75719;DHT22;64340;48.534;-3.036;2023-03-01T16:33:56;13.60;54.70
75719;DHT22;64340;48.534;-3.036;2023-03-01T16:36:26;13.70;54.80
75719;DHT22;64340;48.534;-3.036;2023-03-01T16:38:57;13.70;54.70
75719;DHT22;64340;48.534;-3.036;2023-03-01T16:41:30;13.70;54.60
75719;DHT22;64340;48.534;-3.036;2023-03-01T16:43:57;13.70;54.60
75719;DHT22;64340;48.534;-3.036;2023-03-01T16:46:28;13.70;54.60
75719;DHT22;64340;48.534;-3.036;2023-03-01T16:48:55;13.70;54.50
75719;DHT22;64340;48.534;-3.036;2023-03-01T16:51:22;13.80;54.50
75719;DHT22;64340;48.534;-3.036;2023-03-01T16:53:48;13.90;54.50
75719;DHT22;64340;48.534;-3.036;2023-03-01T16:56:15;13.90;54.90
75719;DHT22;64340;48.534;-3.036;2023-03-01T16:58:41;13.90;55.50
75719;DHT22;64340;48.534;-3.036;2023-03-01T17:01:13;13.90;55.50
75719;DHT22;64340;48.534;-3.036;2023-03-01T17:03:39;13.90;55.90
75719;DHT22;64340;48.534;-3.036;2023-03-01T17:06:08;14.00;56.20
75719;DHT22;64340;48.534;-3.036;2023-03-01T17:08:36;14.00;56.40
75719;DHT22;64340;48.534;-3.036;2023-03-01T17:11:13;14.00;56.30
75719;DHT22;64340;48.534;-3.036;2023-03-01T17:13:41;14.00;56.80
75719;DHT22;64340;48.534;-3.036;2023-03-01T17:16:10;14.00;57.00
75719;DHT22;64340;48.534;-3.036;2023-03-01T17:18:37;14.10;56.80
75719;DHT22;64340;48.534;-3.036;2023-03-01T17:21:05;14.10;57.30
75719;DHT22;64340;48.534;-3.036;2023-03-01T17:23:32;14.10;57.40
75719;DHT22;64340;48.534;-3.036;2023-03-01T17:25:59;14.10;57.20
75719;DHT22;64340;48.534;-3.036;2023-03-01T17:28:28;14.20;57.10
75719;DHT22;64340;48.534;-3.036;2023-03-01T17:30:54;14.20;56.90
75719;DHT22;64340;48.534;-3.036;2023-03-01T17:33:21;14.10;56.90
75719;DHT22;64340;48.534;-3.036;2023-03-01T17:35:47;14.20;56.80
75719;DHT22;64340;48.534;-3.036;2023-03-01T17:38:16;14.10;56.60
75719;DHT22;64340;48.534;-3.036;2023-03-01T17:40:42;14.10;56.60
75719;DHT22;64340;48.534;-3.036;2023-03-01T17:43:10;14.00;55.80
75719;DHT22;64340;48.534;-3.036;2023-03-01T17:45:37;14.00;55.70
75719;DHT22;64340;48.534;-3.036;2023-03-01T17:48:03;14.10;55.80
75719;DHT22;64340;48.534;-3.036;2023-03-01T17:50:29;14.10;55.90
75719;DHT22;64340;48.534;-3.036;2023-03-01T17:52:55;14.10;55.80
75719;DHT22;64340;48.534;-3.036;2023-03-01T17:55:21;14.10;55.70
75719;DHT22;64340;48.534;-3.036;2023-03-01T17:57:47;14.10;55.70
75719;DHT22;64340;48.534;-3.036;2023-03-01T18:00:14;14.10;55.70
75719;DHT22;64340;48.534;-3.036;2023-03-01T18:02:41;14.10;55.60
75719;DHT22;64340;48.534;-3.036;2023-03-01T18:05:07;14.20;55.60
75719;DHT22;64340;48.534;-3.036;2023-03-01T18:07:33;14.20;55.60
75719;DHT22;64340;48.534;-3.036;2023-03-01T18:09:59;14.20;55.50
75719;DHT22;64340;48.534;-3.036;2023-03-01T18:12:25;14.20;55.50
75719;DHT22;64340;48.534;-3.036;2023-03-01T18:14:51;14.30;55.50
75719;DHT22;64340;48.534;-3.036;2023-03-01T18:17:20;14.30;55.50
75719;DHT22;64340;48.534;-3.036;2023-03-01T18:19:46;14.30;55.80
75719;DHT22;64340;48.534;-3.036;2023-03-01T18:22:12;14.30;56.10
75719;DHT22;64340;48.534;-3.036;2023-03-01T18:24:39;14.30;56.40
75719;DHT22;64340;48.534;-3.036;2023-03-01T18:27:05;14.30;56.50
75719;DHT22;64340;48.534;-3.036;2023-03-01T18:29:31;14.40;56.40
75719;DHT22;64340;48.534;-3.036;2023-03-01T18:31:57;14.40;56.50
75719;DHT22;64340;48.534;-3.036;2023-03-01T18:34:23;14.40;56.40
75719;DHT22;64340;48.534;-3.036;2023-03-01T18:36:49;14.40;56.10
75719;DHT22;64340;48.534;-3.036;2023-03-01T18:39:21;14.40;56.10
75719;DHT22;64340;48.534;-3.036;2023-03-01T18:41:47;14.30;55.90
75719;DHT22;64340;48.534;-3.036;2023-03-01T18:44:13;14.30;55.60
75719;DHT22;64340;48.534;-3.036;2023-03-01T18:46:38;14.30;55.50
75719;DHT22;64340;48.534;-3.036;2023-03-01T18:49:06;14.40;55.60
75719;DHT22;64340;48.534;-3.036;2023-03-01T18:51:32;14.50;55.40
75719;DHT22;64340;48.534;-3.036;2023-03-01T18:54:02;14.50;55.60
75719;DHT22;64340;48.534;-3.036;2023-03-01T18:56:29;14.60;55.40
75719;DHT22;64340;48.534;-3.036;2023-03-01T18:58:55;14.60;55.70
75719;DHT22;64340;48.534;-3.036;2023-03-01T19:01:23;14.60;55.50
75719;DHT22;64340;48.534;-3.036;2023-03-01T19:03:50;14.60;56.10
75719;DHT22;64340;48.534;-3.036;2023-03-01T19:06:17;14.60;56.20
75719;DHT22;64340;48.534;-3.036;2023-03-01T19:08:43;14.60;56.20
75719;DHT22;64340;48.534;-3.036;2023-03-01T19:11:11;14.60;56.40
75719;DHT22;64340;48.534;-3.036;2023-03-01T19:13:38;14.50;56.40
75719;DHT22;64340;48.534;-3.036;2023-03-01T19:16:13;14.50;56.50
75719;DHT22;64340;48.534;-3.036;2023-03-01T19:18:41;14.50;56.50
75719;DHT22;64340;48.534;-3.036;2023-03-01T19:21:09;14.50;56.70
75719;DHT22;64340;48.534;-3.036;2023-03-01T19:23:36;14.50;56.50
75719;DHT22;64340;48.534;-3.036;2023-03-01T19:26:05;14.50;56.40
75719;DHT22;64340;48.534;-3.036;2023-03-01T19:28:32;14.50;56.20
75719;DHT22;64340;48.534;-3.036;2023-03-01T19:31:03;14.50;56.30
75719;DHT22;64340;48.534;-3.036;2023-03-01T19:33:31;14.50;56.20
75719;DHT22;64340;48.534;-3.036;2023-03-01T19:35:57;14.50;56.20
75719;DHT22;64340;48.534;-3.036;2023-03-01T19:38:24;14.50;56.20
75719;DHT22;64340;48.534;-3.036;2023-03-01T19:40:50;14.40;56.10
75719;DHT22;64340;48.534;-3.036;2023-03-01T19:43:16;14.40;56.00